Time;durP1;ratioP1;P1;durP2;ratioP2;P2;SDS_P1;SDS_P2;PMS_P1;PMS_P2;Temp;Humidity;BMP_temperature;BMP_pressure;BME280_temperature;BME280_humidity;BME280_pressure;Samples;Min_cycle;Max_cycle;Signal;HPM_P1;HPM_P2
2024/01/26 00:02:04;;;;;;;2.80;2.70;;;9.70;99.90;;;;;;6100262;23;20410;-77
2024/01/26 00:04:47;;;;;;;2.77;2.63;;;9.70;99.90;;;;;;6099705;23;20413;-78
2024/01/26 00:07:33;;;;;;;2.70;2.50;;;9.70;99.90;;;;;;6100960;23;20391;-77
2024/01/26 00:10:16;;;;;;;3.40;3.13;;;9.70;99.90;;;;;;6099272;23;20426;-78
2024/01/26 00:13:02;;;;;;;2.80;2.70;;;9.70;99.90;;;;;;6099875;23;20413;-79
2024/01/26 00:15:37;;;;;;;2.90;2.70;;;9.70;99.90;;;;;;6101490;23;20925;-77
2024/01/26 00:18:18;;;;;;;3.37;3.17;;;9.70;99.90;;;;;;6103007;23;20429;-77
2024/01/26 00:21:08;;;;;;;2.47;2.27;;;9.70;99.90;;;;;;6105262;23;20468;-77
2024/01/26 00:23:45;;;;;;;2.13;1.97;;;9.80;99.90;;;;;;6106566;23;20433;-77
2024/01/26 00:26:29;;;;;;;1.50;1.50;;;9.80;99.90;;;;;;6107128;23;20414;-76
2024/01/26 00:29:13;;;;;;;1.77;1.67;;;9.80;99.90;;;;;;6099310;23;20512;-77
2024/01/26 00:32:00;;;;;;;2.97;1.70;;;9.80;99.90;;;;;;6100249;23;20503;-76
2024/01/26 00:34:35;;;;;;;1.93;1.87;;;9.80;99.90;;;;;;6102223;23;20781;-77
2024/01/26 00:37:24;;;;;;;1.70;1.60;;;9.90;99.90;;;;;;6097180;23;20413;-76
2024/01/26 00:40:06;;;;;;;1.50;1.50;;;9.90;99.90;;;;;;6097156;23;20755;-78
2024/01/26 00:43:11;;;;;;;2.20;2.10;;;9.90;99.90;;;;;;6096188;23;20434;-77
2024/01/26 00:46:02;;;;;;;1.87;1.77;;;9.90;99.90;;;;;;6096633;23;20500;-75
2024/01/26 00:48:47;;;;;;;1.90;1.80;;;9.90;99.90;;;;;;6097144;23;20457;-76
2024/01/26 00:52:04;;;;;;;1.83;1.73;;;10.10;99.90;;;;;;6096895;23;20532;-77
2024/01/26 00:54:44;;;;;;;1.83;1.73;;;9.90;99.90;;;;;;6095381;23;20418;-78
2024/01/26 00:57:33;;;;;;;1.73;1.63;;;9.90;99.90;;;;;;6095392;23;20422;-77
2024/01/26 01:00:16;;;;;;;1.70;1.60;;;9.90;99.90;;;;;;6096060;23;20414;-78
2024/01/26 01:03:04;;;;;;;1.97;1.87;;;9.90;99.90;;;;;;6096575;23;20438;-79
2024/01/26 01:06:04;;;;;;;2.10;2.00;;;9.90;99.90;;;;;;6096801;23;20441;-77
2024/01/26 01:09:01;;;;;;;1.80;1.70;;;9.90;99.90;;;;;;6099924;23;20457;-76
2024/01/26 01:11:50;;;;;;;1.93;1.83;;;9.90;99.90;;;;;;6101947;23;20488;-77
2024/01/26 01:14:28;;;;;;;1.67;1.57;;;9.70;99.90;;;;;;6103699;23;20458;-76
2024/01/26 01:17:11;;;;;;;1.60;1.50;;;10.00;99.90;;;;;;6109027;23;20432;-77
2024/01/26 01:20:16;;;;;;;1.90;1.80;;;9.90;99.90;;;;;;6107250;23;20441;-77
2024/01/26 01:23:04;;;;;;;1.63;1.60;;;9.90;99.90;;;;;;6110183;23;20450;-76
2024/01/26 01:25:50;;;;;;;1.80;1.70;;;9.90;99.90;;;;;;6117535;23;20420;-77
2024/01/26 01:28:40;;;;;;;2.10;1.90;;;10.00;99.90;;;;;;6117448;23;20454;-77
2024/01/26 01:34:45;;;;;;;2.37;1.70;;;10.00;99.90;;;;;;6114818;23;20430;-77
2024/01/26 01:37:34;;;;;;;2.03;1.93;;;10.00;99.90;;;;;;6085245;23;20405;-77
2024/01/26 01:40:22;;;;;;;1.40;1.40;;;10.00;99.90;;;;;;6098558;23;20409;-76
2024/01/26 01:43:13;;;;;;;1.77;1.47;;;10.00;99.90;;;;;;6097399;23;20933;-78
2024/01/26 01:46:14;;;;;;;1.27;1.27;;;9.90;99.90;;;;;;6103091;23;20438;-76
2024/01/26 01:49:03;;;;;;;1.73;1.63;;;9.90;99.90;;;;;;6106653;23;20441;-75
2024/01/26 01:55:04;;;;;;;1.67;1.57;;;9.90;99.90;;;;;;6105827;23;20462;-75
2024/01/26 01:57:48;;;;;;;1.80;1.70;;;9.90;99.90;;;;;;6103926;23;20780;-77
2024/01/26 02:01:06;;;;;;;1.50;1.50;;;9.90;99.90;;;;;;6095720;23;20417;-75
2024/01/26 02:04:04;;;;;;;2.07;1.40;;;9.90;99.90;;;;;;6034702;23;20440;-77
2024/01/26 02:07:25;;;;;;;2.03;1.83;;;9.90;99.90;;;;;;6102000;23;20416;-77
2024/01/26 02:09:59;;;;;;;1.50;1.40;;;9.90;99.90;;;;;;6100048;23;20441;-75
2024/01/26 02:12:38;;;;;;;1.80;1.70;;;9.90;99.90;;;;;;6100495;23;20457;-76
2024/01/26 02:15:17;;;;;;;2.20;2.00;;;9.80;99.90;;;;;;6102067;23;20422;-75
2024/01/26 02:18:01;;;;;;;1.53;1.47;;;9.90;99.90;;;;;;6101746;23;20456;-75
2024/01/26 02:20:44;;;;;;;1.70;1.60;;;9.70;99.90;;;;;;6107027;23;20453;-77
2024/01/26 02:23:51;;;;;;;1.50;1.33;;;9.80;99.90;;;;;;6104487;23;20529;-77
2024/01/26 02:26:34;;;;;;;2.10;1.40;;;9.80;99.90;;;;;;6102882;23;20418;-77
2024/01/26 02:32:21;;;;;;;1.23;1.23;;;9.80;99.90;;;;;;6099833;23;20428;-77
2024/01/26 02:35:24;;;;;;;;;;;;;;;;;;;;;
2024/01/26 02:38:06;;;;;;;1.60;1.23;;;9.80;99.90;;;;;;6100217;23;20416;-76
2024/01/26 02:41:04;;;;;;;1.20;1.20;;;9.80;99.90;;;;;;6105709;23;20486;-77
2024/01/26 02:44:18;;;;;;;1.10;1.10;;;9.50;99.90;;;;;;6105786;23;20434;-76
2024/01/26 02:50:03;;;;;;;1.27;1.27;;;9.80;99.90;;;;;;6092391;23;20441;-76
2024/01/26 02:53:04;;;;;;;1.20;1.10;;;9.50;99.90;;;;;;6100384;23;20488;-76
2024/01/26 02:56:13;;;;;;;1.43;1.10;;;9.80;99.90;;;;;;6101276;23;20424;-77
2024/01/26 02:58:59;;;;;;;1.33;1.23;;;9.80;99.90;;;;;;6100890;23;20461;-78
2024/01/26 03:01:46;;;;;;;1.10;1.10;;;9.70;99.90;;;;;;6104900;23;20481;-77
2024/01/26 03:04:32;;;;;;;1.57;1.13;;;9.70;99.90;;;;;;6104141;23;20461;-77
2024/01/26 03:07:19;;;;;;;1.10;1.10;;;9.70;99.90;;;;;;6104460;23;20417;-77
2024/01/26 03:13:29;;;;;;;1.27;1.20;;;9.70;99.90;;;;;;6100616;23;20862;-76
2024/01/26 03:16:28;;;;;;;1.00;1.00;;;9.70;99.90;;;;;;6104985;23;20422;-77
2024/01/26 03:19:19;;;;;;;1.40;1.10;;;9.90;99.90;;;;;;6100921;23;20432;-77
2024/01/26 03:22:06;;;;;;;;;;;;;;;;;;;;;
2024/01/26 03:25:06;;;;;;;1.17;1.17;;;9.70;99.90;;;;;;6101925;23;20429;-80
2024/01/26 03:28:12;;;;;;;1.80;1.70;;;9.60;99.90;;;;;;6104861;23;20417;-76
2024/01/26 03:31:24;;;;;;;1.10;1.10;;;9.90;99.90;;;;;;6108236;23;20429;-77
2024/01/26 03:37:53;;;;;;;1.20;1.20;;;9.60;99.90;;;;;;6108047;23;20505;-77
2024/01/26 03:40:53;;;;;;;1.43;1.40;;;9.60;99.90;;;;;;6103505;23;20519;-77
2024/01/26 03:44:02;;;;;;;1.40;1.37;;;9.60;99.90;;;;;;6101546;23;20464;-77
2024/01/26 03:47:07;;;;;;;1.87;1.20;;;9.60;99.90;;;;;;6101245;23;20480;-76
2024/01/26 03:50:10;;;;;;;1.43;1.43;;;9.60;99.90;;;;;;6100624;23;20511;-76
2024/01/26 03:52:56;;;;;;;1.37;1.37;;;9.60;99.90;;;;;;6109194;23;20454;-76
2024/01/26 03:55:31;;;;;;;1.70;1.60;;;9.60;99.90;;;;;;6112417;23;20429;-78
2024/01/26 03:58:05;;;;;;;1.50;1.40;;;9.40;99.90;;;;;;6110633;23;20416;-78
2024/01/26 04:00:37;;;;;;;1.20;1.20;;;9.80;99.90;;;;;;6109906;23;20446;-79
2024/01/26 04:03:13;;;;;;;1.43;1.43;;;9.30;99.90;;;;;;6112516;23;20445;-77
2024/01/26 04:05:47;;;;;;;1.80;1.70;;;9.60;99.90;;;;;;6108651;23;20496;-78
2024/01/26 04:08:22;;;;;;;2.00;1.90;;;9.30;99.90;;;;;;6107939;23;20445;-78
2024/01/26 04:11:00;;;;;;;1.40;1.40;;;9.60;99.90;;;;;;6110423;23;20406;-78
2024/01/26 04:13:35;;;;;;;1.70;1.60;;;9.60;99.90;;;;;;6102651;23;20430;-78
2024/01/26 04:16:24;;;;;;;1.90;1.80;;;9.50;99.90;;;;;;6100503;23;20424;-81
2024/01/26 04:18:57;;;;;;;1.87;1.80;;;9.50;99.90;;;;;;6100607;23;20468;-78
2024/01/26 04:21:28;;;;;;;1.70;1.70;;;9.50;99.90;;;;;;6101069;23;20421;-77
2024/01/26 04:23:59;;;;;;;2.93;1.87;;;9.50;99.90;;;;;;6098904;23;20434;-77
2024/01/26 04:26:34;;;;;;;1.73;1.67;;;9.50;99.90;;;;;;6096635;23;20492;-77
2024/01/26 04:29:07;;;;;;;1.80;1.70;;;9.70;99.90;;;;;;6096574;23;20437;-77
2024/01/26 04:31:47;;;;;;;1.70;1.60;;;9.50;99.90;;;;;;6096676;23;20414;-77
2024/01/26 04:34:35;;;;;;;1.80;1.70;;;9.50;99.90;;;;;;6096824;23;20440;-77
2024/01/26 04:37:24;;;;;;;1.57;1.50;;;9.50;99.90;;;;;;6097934;23;20414;-75
2024/01/26 04:39:55;;;;;;;1.60;1.50;;;9.50;99.90;;;;;;6107572;23;20734;-75
2024/01/26 04:42:27;;;;;;;2.40;1.83;;;9.70;99.90;;;;;;6103914;23;20506;-76
2024/01/26 04:45:06;;;;;;;1.93;1.83;;;9.50;99.90;;;;;;6096995;23;20418;-78
2024/01/26 04:47:45;;;;;;;1.80;1.70;;;9.50;99.90;;;;;;6097096;23;20469;-78
2024/01/26 04:50:20;;;;;;;4.20;1.93;;;9.50;99.90;;;;;;6099454;23;20438;-79
2024/01/26 04:52:52;;;;;;;3.73;1.80;;;9.40;99.90;;;;;;6099677;23;20436;-79
2024/01/26 04:55:25;;;;;;;3.57;1.70;;;9.40;99.90;;;;;;6098319;23;20398;-77
2024/01/26 04:58:01;;;;;;;2.80;1.77;;;9.40;99.90;;;;;;6097551;23;20387;-77
2024/01/26 05:00:36;;;;;;;1.27;1.27;;;9.70;99.90;;;;;;6098272;23;20421;-78
2024/01/26 05:03:12;;;;;;;1.83;1.70;;;9.20;99.90;;;;;;6098462;23;20528;-77
2024/01/26 05:05:51;;;;;;;1.53;1.43;;;9.70;99.90;;;;;;6098264;23;20440;-77
2024/01/26 05:08:29;;;;;;;2.00;1.63;;;9.50;99.90;;;;;;6098167;23;20402;-80
2024/01/26 05:11:10;;;;;;;2.60;2.30;;;9.50;99.90;;;;;;6098064;23;20441;-79
2024/01/26 05:13:39;;;;;;;1.60;1.50;;;9.50;99.90;;;;;;6098082;23;20410;-78
2024/01/26 05:16:13;;;;;;;1.53;1.53;;;9.50;99.90;;;;;;6098104;23;20781;-78
2024/01/26 05:18:52;;;;;;;2.40;2.10;;;9.50;99.90;;;;;;6097335;23;20414;-79
2024/01/26 05:21:36;;;;;;;1.60;1.50;;;9.50;99.90;;;;;;6097198;23;20413;-77
2024/01/26 05:24:10;;;;;;;1.80;1.70;;;9.50;99.90;;;;;;6096266;23;20472;-77
2024/01/26 05:26:51;;;;;;;1.23;1.23;;;9.50;99.90;;;;;;6099240;23;20473;-78
2024/01/26 05:29:36;;;;;;;1.43;1.43;;;9.50;99.90;;;;;;6100498;23;20525;-77
2024/01/26 05:32:10;;;;;;;1.67;1.67;;;9.50;99.90;;;;;;6074451;23;20414;-79
2024/01/26 05:34:45;;;;;;;1.90;1.80;;;9.50;99.90;;;;;;6100350;23;20410;-77
2024/01/26 05:37:21;;;;;;;1.50;1.40;;;9.50;99.90;;;;;;6074700;23;20412;-80
2024/01/26 05:39:56;;;;;;;2.10;1.70;;;9.50;99.90;;;;;;6101033;23;20693;-78
2024/01/26 05:42:35;;;;;;;1.57;1.57;;;9.40;99.90;;;;;;6101875;23;20441;-78
2024/01/26 05:45:09;;;;;;;1.67;1.57;;;9.50;99.90;;;;;;6105278;23;20452;-79
2024/01/26 05:47:41;;;;;;;1.73;1.63;;;9.50;99.90;;;;;;6110484;23;20414;-77
2024/01/26 05:50:14;;;;;;;1.97;1.70;;;9.50;99.90;;;;;;6110437;23;20956;-78
2024/01/26 05:52:52;;;;;;;2.13;1.43;;;9.50;99.90;;;;;;6104649;23;20457;-76
2024/01/26 05:55:30;;;;;;;1.30;1.30;;;9.50;99.90;;;;;;6100159;23;20446;-76
2024/01/26 05:58:02;;;;;;;2.00;1.97;;;9.50;99.90;;;;;;6098329;23;20394;-77
2024/01/26 06:00:32;;;;;;;1.87;1.77;;;9.50;99.90;;;;;;6101845;23;20407;-80
2024/01/26 06:03:14;;;;;;;1.90;1.80;;;9.20;99.90;;;;;;6108328;23;20460;-77
2024/01/26 06:05:45;;;;;;;1.30;1.30;;;9.50;99.90;;;;;;6115218;23;20418;-78
2024/01/26 06:08:23;;;;;;;1.90;1.70;;;9.50;99.90;;;;;;6114562;23;20497;-77
2024/01/26 06:10:59;;;;;;;1.30;1.30;;;9.60;99.90;;;;;;6112012;23;20441;-78
2024/01/26 06:13:37;;;;;;;1.77;1.53;;;9.50;99.90;;;;;;6114178;23;20529;-77
2024/01/26 06:16:15;;;;;;;1.60;1.60;;;9.50;99.90;;;;;;6108908;23;20406;-77
2024/01/26 06:18:45;;;;;;;1.40;1.40;;;9.50;99.90;;;;;;6103960;23;20421;-78
2024/01/26 06:21:26;;;;;;;1.67;1.57;;;9.50;99.90;;;;;;6101025;23;20413;-77
2024/01/26 06:24:01;;;;;;;2.93;1.57;;;9.40;99.90;;;;;;6099988;23;20417;-77
2024/01/26 06:26:31;;;;;;;1.70;1.60;;;9.50;99.90;;;;;;6100899;23;20417;-79
2024/01/26 06:29:07;;;;;;;1.60;1.50;;;9.30;99.90;;;;;;6099592;23;20501;-76
2024/01/26 06:31:42;;;;;;;1.63;1.40;;;9.50;99.90;;;;;;6103216;23;20413;-81
2024/01/26 06:34:12;;;;;;;1.40;1.30;;;9.50;99.90;;;;;;6102331;23;20901;-80
2024/01/26 06:36:45;;;;;;;1.50;1.40;;;9.60;99.90;;;;;;6100962;23;20412;-78
2024/01/26 06:42:21;;;;;;;1.73;1.63;;;9.70;99.90;;;;;;6100404;23;20985;-78
2024/01/26 06:44:57;;;;;;;1.50;1.40;;;9.90;99.90;;;;;;6101425;23;20425;-80
2024/01/26 06:47:42;;;;;;;1.50;1.40;;;9.60;99.90;;;;;;6100705;23;20413;-77
2024/01/26 06:50:22;;;;;;;1.60;1.53;;;9.80;99.90;;;;;;6102338;23;20469;-79
2024/01/26 06:53:17;;;;;;;2.40;1.50;;;9.80;99.90;;;;;;6101587;23;20433;-78
2024/01/26 06:56:11;;;;;;;1.67;1.30;;;9.90;99.90;;;;;;6104907;23;20417;-79
2024/01/26 06:58:57;;;;;;;1.43;1.43;;;9.90;99.90;;;;;;6102213;23;20492;-78
2024/01/26 07:01:33;;;;;;;1.30;1.30;;;9.90;99.90;;;;;;6100238;23;20409;-77
2024/01/26 07:04:10;;;;;;;1.30;1.20;;;10.00;99.90;;;;;;6101095;23;20433;-77
2024/01/26 07:06:53;;;;;;;2.73;1.30;;;10.00;99.90;;;;;;6099961;23;20454;-79
2024/01/26 07:09:51;;;;;;;1.47;1.47;;;10.00;99.90;;;;;;6100333;23;20417;-77
2024/01/26 07:12:41;;;;;;;1.83;1.73;;;10.10;99.90;;;;;;6098990;23;20413;-78
2024/01/26 07:15:18;;;;;;;1.47;1.37;;;10.10;99.90;;;;;;6098781;23;20441;-77
2024/01/26 07:17:58;;;;;;;1.50;1.13;;;10.10;99.90;;;;;;6098533;23;20538;-79
2024/01/26 07:20:34;;;;;;;1.40;1.40;;;10.10;99.90;;;;;;6098848;23;20409;-78
2024/01/26 07:23:05;;;;;;;1.33;1.23;;;10.30;99.90;;;;;;6100072;23;20429;-78
2024/01/26 07:26:02;;;;;;;;;;;;;;;;;;;;;
2024/01/26 07:29:18;;;;;;;1.67;1.53;;;10.20;99.90;;;;;;6099644;23;20391;-77
2024/01/26 07:35:09;;;;;;;1.70;1.60;;;10.20;99.90;;;;;;6092282;23;20824;-77
2024/01/26 07:38:10;;;;;;;1.83;1.73;;;10.20;99.90;;;;;;6099523;23;20410;-76
2024/01/26 07:41:10;;;;;;;1.30;1.20;;;10.20;99.90;;;;;;6099986;23;20413;-78
2024/01/26 07:44:09;;;;;;;1.60;1.60;;;10.20;99.90;;;;;;6098406;23;20461;-79
2024/01/26 07:47:00;;;;;;;1.63;1.53;;;10.20;99.90;;;;;;6101702;23;20492;-78
2024/01/26 07:49:48;;;;;;;1.80;1.70;;;10.20;99.90;;;;;;6101367;23;20942;-80
2024/01/26 07:52:21;;;;;;;1.30;1.20;;;10.30;99.90;;;;;;6102910;23;20409;-78
2024/01/26 07:55:03;;;;;;;1.10;1.10;;;10.30;99.90;;;;;;6100701;23;20810;-79
2024/01/26 07:57:54;;;;;;;1.60;1.50;;;10.30;99.90;;;;;;6100415;23;21140;-80
2024/01/26 08:00:40;;;;;;;1.87;1.77;;;10.30;99.90;;;;;;6101065;23;20410;-77
2024/01/26 08:03:33;;;;;;;2.37;1.90;;;10.40;99.90;;;;;;6101337;23;20434;-77
2024/01/26 08:12:04;;;;;;;1.70;1.47;;;10.60;99.90;;;;;;6102298;23;20442;-79
2024/01/26 08:14:42;;;;;;;2.23;1.90;;;10.90;99.90;;;;;;6103128;23;20811;-77
2024/01/26 08:17:17;;;;;;;3.17;1.67;;;10.90;99.90;;;;;;6101197;23;20764;-80
2024/01/26 08:19:47;;;;;;;1.77;1.67;;;10.90;99.90;;;;;;6100696;23;20422;-78
2024/01/26 08:22:20;;;;;;;1.43;1.40;;;10.90;99.90;;;;;;6100562;23;20417;-78
2024/01/26 08:24:58;;;;;;;2.00;1.80;;;11.00;99.90;;;;;;6100941;23;20397;-78
2024/01/26 08:27:42;;;;;;;1.97;1.80;;;11.00;99.90;;;;;;6099745;23;20417;-80
2024/01/26 08:30:23;;;;;;;1.50;1.30;;;11.10;99.90;;;;;;6100421;23;20457;-76
2024/01/26 08:33:04;;;;;;;1.40;1.40;;;11.10;99.90;;;;;;6100286;23;20444;-78
2024/01/26 08:35:57;;;;;;;1.33;1.23;;;11.00;99.90;;;;;;6098905;23;20700;-80
2024/01/26 08:38:33;;;;;;;1.90;1.60;;;11.10;99.90;;;;;;6098869;23;20432;-77
2024/01/26 08:41:28;;;;;;;2.30;1.73;;;11.10;99.90;;;;;;6100474;23;20481;-79
2024/01/26 08:44:09;;;;;;;1.57;1.50;;;11.10;99.90;;;;;;6110454;23;20489;-79
2024/01/26 08:46:59;;;;;;;1.63;1.53;;;11.30;99.90;;;;;;6110954;23;20413;-76
2024/01/26 08:50:01;;;;;;;1.90;1.80;;;11.10;99.90;;;;;;6109027;23;20413;-78
2024/01/26 08:52:38;;;;;;;1.67;1.60;;;10.90;99.90;;;;;;6116233;23;20437;-78
2024/01/26 08:55:45;;;;;;;1.80;1.70;;;11.20;99.90;;;;;;6091529;23;20405;-78
2024/01/26 08:58:54;;;;;;;2.63;2.43;;;11.20;99.90;;;;;;6116701;23;20438;-78
2024/01/26 09:01:36;;;;;;;1.83;1.73;;;11.30;99.90;;;;;;6114439;23;20413;-78
2024/01/26 09:04:36;;;;;;;3.97;1.77;;;11.30;99.90;;;;;;6114551;23;20444;-78
2024/01/26 09:07:51;;;;;;;1.90;1.80;;;11.30;99.90;;;;;;6060682;23;20406;-77
2024/01/26 09:10:34;;;;;;;1.57;1.47;;;11.10;99.90;;;;;;6103498;23;20461;-77
2024/01/26 09:13:32;;;;;;;2.93;2.60;;;11.40;99.90;;;;;;6112721;23;20470;-79
2024/01/26 09:16:37;;;;;;;1.83;1.73;;;11.40;99.90;;;;;;6110785;23;20441;-76
2024/01/26 09:19:26;;;;;;;5.13;2.03;;;11.40;99.90;;;;;;6108055;23;20421;-79
2024/01/26 09:22:10;;;;;;;1.80;1.70;;;11.40;99.90;;;;;;6106488;23;20406;-77
2024/01/26 09:25:04;;;;;;;2.07;1.80;;;11.50;99.90;;;;;;6104438;23;20414;-79
2024/01/26 09:27:36;;;;;;;2.30;2.10;;;11.50;99.90;;;;;;6106813;23;20823;-79
2024/01/26 09:30:22;;;;;;;2.97;1.90;;;11.50;99.90;;;;;;6108794;23;20410;-80
2024/01/26 09:33:09;;;;;;;1.80;1.70;;;11.50;99.90;;;;;;6107971;23;20461;-78
2024/01/26 09:35:56;;;;;;;1.60;1.50;;;11.60;99.90;;;;;;6078427;23;20437;-80
2024/01/26 09:38:32;;;;;;;1.80;1.70;;;11.60;99.90;;;;;;6105746;23;20422;-78
2024/01/26 09:41:08;;;;;;;1.90;1.73;;;11.60;99.90;;;;;;6105198;23;20414;-78
2024/01/26 09:43:45;;;;;;;5.40;2.70;;;11.60;99.90;;;;;;6103575;23;20421;-80
2024/01/26 09:49:11;;;;;;;2.70;1.57;;;11.60;99.90;;;;;;6052680;23;20508;-77
2024/01/26 09:51:46;;;;;;;1.80;1.70;;;11.60;99.90;;;;;;6100198;23;20497;-78
2024/01/26 09:54:20;;;;;;;1.70;1.60;;;11.40;99.90;;;;;;6101076;23;20465;-75
2024/01/26 09:56:59;;;;;;;1.30;1.30;;;11.60;99.90;;;;;;6098982;23;20441;-79
2024/01/26 09:59:36;;;;;;;1.40;1.40;;;11.70;99.90;;;;;;6101129;23;20769;-79
2024/01/26 10:02:23;;;;;;;1.10;1.10;;;11.70;99.90;;;;;;6102675;23;20441;-78
2024/01/26 10:05:13;;;;;;;1.60;1.50;;;11.70;99.90;;;;;;6105241;23;20429;-77
2024/01/26 10:07:49;;;;;;;1.90;1.80;;;11.50;99.90;;;;;;6104755;23;20530;-78
2024/01/26 10:10:41;;;;;;;1.50;1.50;;;11.70;99.90;;;;;;6103942;23;20417;-78
2024/01/26 10:13:21;;;;;;;1.87;1.70;;;11.80;99.90;;;;;;6103906;23;20457;-77
2024/01/26 10:16:07;;;;;;;2.57;1.50;;;11.80;99.90;;;;;;6104213;23;20742;-78
2024/01/26 10:21:52;;;;;;;1.70;1.63;;;11.60;99.90;;;;;;6091952;23;20405;-78
2024/01/26 10:24:39;;;;;;;1.60;1.50;;;11.90;99.90;;;;;;6101422;23;20493;-81
2024/01/26 10:27:12;;;;;;;1.80;1.70;;;11.70;99.90;;;;;;6100690;23;21004;-80
2024/01/26 10:29:51;;;;;;;1.60;1.50;;;12.00;99.90;;;;;;6101596;23;20410;-77
2024/01/26 10:39:02;;;;;;;1.53;1.43;;;12.30;99.90;;;;;;6042795;23;20973;-78
2024/01/26 10:42:04;;;;;;;1.93;1.43;;;12.10;99.90;;;;;;6089932;23;20481;-80
2024/01/26 10:44:54;;;;;;;1.83;1.73;;;12.10;99.90;;;;;;6101989;23;20417;-80
2024/01/26 10:47:33;;;;;;;1.70;1.60;;;12.10;99.90;;;;;;6098939;23;20882;-80
2024/01/26 10:50:16;;;;;;;1.73;1.63;;;12.10;99.90;;;;;;6103316;23;20433;-78
2024/01/26 10:53:30;;;;;;;3.37;1.60;;;12.20;99.90;;;;;;6102189;23;20830;-79
2024/01/26 10:59:04;;;;;;;1.60;1.50;;;12.20;99.90;;;;;;6097364;23;20398;-81
2024/01/26 11:02:04;;;;;;;1.77;1.40;;;12.30;99.90;;;;;;6100353;23;20478;-79
2024/01/26 11:07:43;;;;;;;1.70;1.60;;;12.30;99.90;;;;;;6092587;23;20924;-81
2024/01/26 11:10:29;;;;;;;1.43;1.33;;;12.30;99.90;;;;;;6099727;23;20382;-77
2024/01/26 11:13:20;;;;;;;1.73;1.33;;;12.30;99.90;;;;;;6100087;23;20433;-80
2024/01/26 11:16:24;;;;;;;1.73;1.60;;;12.30;99.90;;;;;;6100460;23;20409;-80
2024/01/26 11:19:16;;;;;;;1.60;1.50;;;12.30;99.90;;;;;;6098279;23;20424;-79
2024/01/26 11:21:57;;;;;;;1.10;1.10;;;12.30;99.90;;;;;;6104558;23;20414;-79
2024/01/26 11:24:58;;;;;;;1.17;1.17;;;12.50;99.90;;;;;;6103455;23;20452;-80
2024/01/26 11:27:42;;;;;;;1.50;1.40;;;12.40;99.90;;;;;;6104443;23;20390;-81
2024/01/26 11:30:23;;;;;;;1.50;1.40;;;12.50;99.90;;;;;;6104924;23;20426;-80
2024/01/26 11:32:54;;;;;;;1.13;1.13;;;12.30;99.90;;;;;;6103137;23;20446;-77
2024/01/26 11:35:35;;;;;;;3.00;1.80;;;12.40;99.90;;;;;;6103576;23;20527;-77
2024/01/26 11:38:20;;;;;;;1.60;1.50;;;12.60;99.90;;;;;;6103438;23;20414;-77
2024/01/26 11:41:10;;;;;;;1.20;1.20;;;12.40;99.90;;;;;;6103020;23;20445;-79
2024/01/26 11:43:46;;;;;;;1.67;1.57;;;12.50;99.90;;;;;;6104241;23;20489;-80
2024/01/26 11:46:22;;;;;;;2.10;1.93;;;12.50;99.90;;;;;;6108354;23;20374;-80
2024/01/26 11:48:57;;;;;;;1.40;1.30;;;12.70;99.90;;;;;;6111259;23;20414;-79
2024/01/26 11:51:34;;;;;;;1.83;1.43;;;12.50;99.90;;;;;;6109716;23;20464;-79
2024/01/26 11:54:10;;;;;;;1.43;1.20;;;12.50;99.90;;;;;;6111641;23;20445;-77
2024/01/26 11:56:48;;;;;;;1.40;1.40;;;12.50;99.90;;;;;;6112145;23;20402;-77
2024/01/26 12:02:17;;;;;;;2.27;1.80;;;12.40;99.90;;;;;;6109144;23;20410;-79
2024/01/26 12:04:58;;;;;;;1.97;1.30;;;12.30;99.90;;;;;;6111636;23;20466;-78
2024/01/26 12:07:36;;;;;;;2.13;1.57;;;12.30;99.90;;;;;;6106943;23;20413;-79
2024/01/26 12:10:09;;;;;;;1.30;1.20;;;12.30;99.90;;;;;;6106193;23;20421;-80
2024/01/26 12:12:57;;;;;;;1.77;1.67;;;12.30;99.90;;;;;;6103288;23;20469;-77
2024/01/26 12:15:30;;;;;;;1.27;1.17;;;12.10;99.90;;;;;;6105388;23;20390;-81
2024/01/26 12:18:08;;;;;;;1.40;1.40;;;12.30;99.90;;;;;;6104992;23;20447;-81
2024/01/26 12:20:36;;;;;;;1.37;1.27;;;12.10;99.90;;;;;;6106883;23;20453;-78
2024/01/26 12:23:05;;;;;;;2.53;1.90;;;12.30;99.90;;;;;;6107484;23;20433;-78
2024/01/26 12:25:39;;;;;;;2.33;1.40;;;12.10;99.90;;;;;;6109616;23;20513;-77
2024/01/26 12:28:06;;;;;;;1.83;1.73;;;12.40;99.90;;;;;;6109316;23;20402;-77
2024/01/26 12:30:34;;;;;;;1.47;1.37;;;12.40;99.90;;;;;;6112843;23;20575;-77
2024/01/26 12:33:06;;;;;;;1.30;1.20;;;12.40;99.90;;;;;;6111447;23;20593;-78
2024/01/26 12:35:35;;;;;;;1.77;1.40;;;12.40;99.90;;;;;;6112863;23;20393;-77
2024/01/26 12:38:03;;;;;;;1.47;1.37;;;12.50;99.90;;;;;;6106379;23;20406;-78
2024/01/26 12:40:37;;;;;;;1.50;1.40;;;12.30;99.90;;;;;;6112919;23;20410;-78
2024/01/26 12:43:06;;;;;;;0.90;0.90;;;12.40;99.90;;;;;;6113082;23;20486;-80
2024/01/26 12:45:42;;;;;;;1.00;1.00;;;12.40;99.90;;;;;;6112963;23;20422;-79
2024/01/26 12:48:13;;;;;;;1.27;1.20;;;12.40;99.90;;;;;;6106585;23;20488;-79
2024/01/26 12:51:00;;;;;;;1.40;1.20;;;12.40;99.90;;;;;;6100254;23;20382;-78
2024/01/26 12:53:56;;;;;;;1.37;1.27;;;12.40;99.90;;;;;;6100253;23;20488;-79
2024/01/26 12:56:27;;;;;;;1.47;1.33;;;12.40;99.90;;;;;;6098955;23;20456;-79
2024/01/26 12:58:56;;;;;;;2.83;1.40;;;12.30;99.90;;;;;;6098473;23;20409;-79
2024/01/26 13:01:32;;;;;;;1.30;1.20;;;12.30;99.90;;;;;;6097482;23;20484;-79
2024/01/26 13:04:04;;;;;;;0.90;0.90;;;12.40;99.90;;;;;;6098663;23;20452;-77
2024/01/26 13:06:33;;;;;;;1.20;1.10;;;12.40;99.90;;;;;;6098325;23;20914;-78
2024/01/26 13:09:10;;;;;;;0.90;0.90;;;12.40;99.90;;;;;;6097611;23;20910;-79
2024/01/26 13:11:40;;;;;;;1.20;1.10;;;12.30;99.90;;;;;;6098724;23;20441;-78
2024/01/26 13:14:11;;;;;;;1.40;1.30;;;12.50;99.90;;;;;;6098759;23;20750;-78
2024/01/26 13:16:40;;;;;;;1.30;1.20;;;12.40;99.90;;;;;;6098433;23;20433;-78
2024/01/26 13:19:11;;;;;;;1.13;1.13;;;12.40;99.90;;;;;;6097757;23;20494;-79
2024/01/26 13:21:39;;;;;;;1.23;1.23;;;12.40;99.90;;;;;;6097950;23;20929;-79
2024/01/26 13:24:19;;;;;;;1.00;1.00;;;12.40;99.90;;;;;;6098267;23;20433;-79
2024/01/26 13:27:05;;;;;;;1.20;1.20;;;12.30;99.90;;;;;;6097672;23;20730;-80
2024/01/26 13:29:49;;;;;;;1.90;1.00;;;12.30;99.90;;;;;;6097788;23;20421;-78
2024/01/26 13:32:18;;;;;;;1.00;1.00;;;12.30;99.90;;;;;;6100347;23;20441;-79
2024/01/26 13:35:27;;;;;;;1.83;0.90;;;12.20;99.90;;;;;;6100601;23;20418;-78
2024/01/26 13:38:16;;;;;;;1.80;1.50;;;12.20;99.90;;;;;;6101948;23;20441;-78
2024/01/26 13:47:05;;;;;;;1.27;0.80;;;12.10;99.90;;;;;;6077186;23;20747;-78
2024/01/26 13:50:03;;;;;;;1.17;1.07;;;12.00;99.90;;;;;;6098306;23;20386;-78
2024/01/26 13:52:48;;;;;;;1.23;1.00;;;12.10;99.90;;;;;;6098314;23;20964;-79
2024/01/26 13:55:23;;;;;;;0.90;0.90;;;12.00;99.90;;;;;;6098421;23;20457;-79
2024/01/26 13:58:20;;;;;;;0.93;0.90;;;11.90;99.90;;;;;;6096112;23;20472;-78
2024/01/26 14:00:50;;;;;;;1.40;1.00;;;11.90;99.90;;;;;;6096334;23;20409;-79
2024/01/26 14:03:25;;;;;;;0.73;0.73;;;11.90;99.90;;;;;;6097267;23;20437;-80
2024/01/26 14:05:55;;;;;;;0.83;0.80;;;11.80;99.90;;;;;;6096852;23;20749;-79
2024/01/26 14:08:23;;;;;;;0.90;0.90;;;11.90;99.90;;;;;;6096858;23;20738;-78
2024/01/26 14:11:32;;;;;;;0.80;0.80;;;11.80;99.90;;;;;;6096504;23;20420;-79
2024/01/26 14:14:53;;;;;;;;;;;;;;;;;;;;;
2024/01/26 14:17:30;;;;;;;1.13;1.13;;;11.70;99.90;;;;;;6024198;23;20447;-80
2024/01/26 14:19:58;;;;;;;1.00;1.00;;;11.70;99.90;;;;;;6102044;23;20425;-79
2024/01/26 14:22:27;;;;;;;1.40;0.90;;;11.60;99.90;;;;;;6101059;23;20504;-79
2024/01/26 14:25:03;;;;;;;0.90;0.90;;;11.60;99.90;;;;;;6100278;23;20410;-78
2024/01/26 14:27:34;;;;;;;0.70;0.70;;;11.60;99.90;;;;;;6102606;23;20417;-79
2024/01/26 14:30:12;;;;;;;0.73;0.73;;;11.60;99.90;;;;;;6105460;23;20736;-79
2024/01/26 14:36:27;;;;;;;;;;;;;;;;;;;;;
2024/01/26 14:39:04;;;;;;;0.70;0.70;;;11.50;99.90;;;;;;6106851;23;20734;-80
2024/01/26 14:41:32;;;;;;;0.80;0.80;;;11.50;99.90;;;;;;6106123;23;20437;-78
2024/01/26 14:44:08;;;;;;;1.00;1.00;;;11.50;99.90;;;;;;6104710;23;20891;-78
2024/01/26 14:46:51;;;;;;;6.43;1.27;;;11.50;99.90;;;;;;6103729;23;20846;-79
2024/01/26 14:49:28;;;;;;;1.07;0.90;;;11.40;99.90;;;;;;6101500;23;20727;-78
2024/01/26 14:52:10;;;;;;;0.70;0.70;;;11.50;99.90;;;;;;6102097;23;20504;-79
2024/01/26 14:55:07;;;;;;;2.20;0.80;;;11.40;99.90;;;;;;6105690;23;20413;-80
2024/01/26 14:57:40;;;;;;;0.83;0.83;;;11.50;99.90;;;;;;6107754;23;20484;-78
2024/01/26 15:00:21;;;;;;;1.00;1.00;;;11.30;99.90;;;;;;6108856;23;20436;-80
2024/01/26 15:03:02;;;;;;;1.37;1.00;;;11.40;99.90;;;;;;6109808;23;20429;-76
2024/01/26 15:05:48;;;;;;;0.93;0.93;;;11.40;99.90;;;;;;6113596;23;20760;-79
2024/01/26 15:08:28;;;;;;;0.70;0.70;;;11.40;99.90;;;;;;6114270;23;20398;-79
2024/01/26 15:11:10;;;;;;;0.80;0.80;;;11.40;99.90;;;;;;6105475;23;20421;-79
2024/01/26 15:13:49;;;;;;;1.43;1.40;;;11.40;99.90;;;;;;6102266;23;20452;-79
2024/01/26 15:16:45;;;;;;;1.90;0.80;;;11.40;99.90;;;;;;6104178;23;20483;-78
2024/01/26 15:23:19;;;;;;;;;;;;;;;;;;;;;
2024/01/26 15:25:49;;;;;;;0.90;0.90;;;11.50;99.90;;;;;;6111573;23;20393;-79
2024/01/26 15:28:23;;;;;;;0.80;0.80;;;11.40;99.90;;;;;;6110791;23;20805;-77